Keiyumaru — JL6541 — position and weather

sailwx.info

Track history (hours):
 
Tides and Currents Weather Stations Pressure Air Temp Water Temp Dewpoint Dewpoint Depression Visibility Wind Speed Wind Dir Waves Ship Positions

Keiyumaru

Last reported at 2017-Sep-20 07:06 UTC. Time now 2017-Sep-22 00:46 UTC.
Position N 34°53' E 139°48'.

Length 81 m; draft 4.8 m.

Type: Cargo ship. MMSI: 431500561.

Date/timePositionNaut miles runAvg speedWind from/ knotsBaromVisibWave heightAir tempDewpointWater temp
2017-Sep-20 07:06N 34°53' E 139°48'114.2
2017-Sep-20 07:00N 34°54' E 139°46'611.4
2017-Sep-20 06:30N 34°60' E 139°45'510.9
2017-Sep-20 06:00N 35°05' E 139°45'611.6
2017-Sep-20 05:30N 35°11' E 139°46'611.4
2017-Sep-20 05:00N 35°17' E 139°45'611.4
2017-Sep-20 04:31N 35°22' E 139°42'510.9
2017-Sep-20 04:01N 35°26' E 139°46'612.4
2017-Sep-20 03:31N 35°30' E 139°52'612.3
2017-Sep-20 03:01N 35°32' E 139°59'5 1.3
2017-Sep-19 23:08N 35°34' E 140°05'2 8.5
2017-Sep-19 22:54N 35°34' E 140°03'1 0.0
2017-Sep-19 09:03N 35°34' E 140°03'0 0.1
2017-Sep-19 09:00N 35°34' E 140°03'0 0.0
2017-Sep-19 08:00N 35°34' E 140°03'2 3.1
2017-Sep-19 07:30N 35°34' E 140°01'4 8.2
2017-Sep-19 07:00N 35°33' E 139°57'4 7.2
2017-Sep-19 06:30N 35°31' E 139°53'2 4.1
2017-Sep-19 05:58N 35°30' E 139°50'0 0.0
2017-Sep-19 05:28N 35°30' E 139°50'0 0.0
2017-Sep-19 04:58N 35°30' E 139°50'2 3.8
2017-Sep-19 04:30N 35°28' E 139°49'713.2
2017-Sep-19 04:00N 35°22' E 139°52'1 1.5
2017-Sep-19 03:05N 35°21' E 139°54'0 0.0
2017-Sep-19 02:58N 35°21' E 139°54'0 0.0
2017-Sep-19 02:29N 35°21' E 139°54'0 0.0
2017-Sep-19 02:00N 35°21' E 139°54'0 0.0
2017-Sep-19 01:25N 35°21' E 139°54'0 0.0
2017-Sep-18 21:47N 35°21' E 139°54'2 5.5
2017-Sep-18 21:27N 35°22' E 139°52'3 7.0
2017-Sep-18 21:01N 35°25' E 139°50'0 0.1
2017-Sep-18 20:29N 35°25' E 139°50'0 0.0
2017-Sep-18 19:59N 35°25' E 139°50'0 0.0
2017-Sep-18 19:29N 35°25' E 139°50'0 0.0
2017-Sep-18 18:59N 35°25' E 139°50'0 0.0
2017-Sep-18 18:29N 35°25' E 139°50'0 0.0
2017-Sep-18 17:59N 35°25' E 139°50'0 0.1
2017-Sep-18 17:29N 35°25' E 139°50'0 0.0
2017-Sep-18 16:59N 35°25' E 139°50'0 0.0
2017-Sep-18 16:29N 35°25' E 139°50'0 0.0
2017-Sep-18 15:59N 35°25' E 139°50'0 0.0
2017-Sep-18 15:29N 35°25' E 139°50'0 0.0
2017-Sep-18 14:59N 35°25' E 139°50'0 0.0
2017-Sep-18 14:29N 35°25' E 139°50'0 0.0
2017-Sep-18 13:59N 35°25' E 139°50'0 0.0
2017-Sep-18 13:29N 35°25' E 139°50'0 0.0
2017-Sep-18 12:56N 35°25' E 139°50'0 0.0
2017-Sep-18 12:29N 35°25' E 139°50'0 0.0
2017-Sep-18 11:59N 35°25' E 139°50'0 0.0
2017-Sep-18 11:29N 35°25' E 139°50'0 0.0
2017-Sep-18 10:56N 35°25' E 139°50'0 0.0
2017-Sep-18 10:29N 35°25' E 139°50'0 0.1
2017-Sep-18 09:56N 35°25' E 139°50'0 0.1
2017-Sep-18 09:26N 35°25' E 139°50'0 0.1
2017-Sep-18 08:59N 35°25' E 139°50'0 0.1
2017-Sep-18 08:20N 35°25' E 139°50'0 0.1
2017-Sep-18 07:56N 35°25' E 139°50'0 0.1
2017-Sep-18 07:29N 35°25' E 139°50'0 0.1
2017-Sep-18 06:59N 35°25' E 139°50'0 0.0
2017-Sep-18 06:29N 35°25' E 139°50'0 0.0
2017-Sep-18 05:43N 35°25' E 139°50'0 0.0
2017-Sep-18 05:29N 35°25' E 139°50'0 0.0
2017-Sep-18 05:00N 35°25' E 139°50'0 0.0
2017-Sep-18 04:29N 35°25' E 139°50'0 0.0
2017-Sep-18 03:57N 35°25' E 139°50'0 0.0
2017-Sep-18 03:29N 35°25' E 139°50'0 0.0
2017-Sep-18 03:00N 35°25' E 139°50'0 0.0
2017-Sep-18 02:30N 35°25' E 139°50'0 0.0
2017-Sep-18 01:59N 35°25' E 139°50'0 0.0
2017-Sep-18 01:30N 35°25' E 139°50'0 0.0
2017-Sep-18 01:00N 35°25' E 139°50'0 0.0
2017-Sep-18 00:29N 35°25' E 139°50'0 0.0
2017-Sep-18 00:00N 35°25' E 139°50'0 0.0
2017-Sep-17 23:30N 35°25' E 139°50'0 0.0
2017-Sep-17 23:00N 35°25' E 139°50'0 0.0
2017-Sep-17 22:30N 35°25' E 139°50'0 0.0
2017-Sep-17 22:00N 35°25' E 139°50'0 0.0
2017-Sep-17 21:30N 35°25' E 139°50'0 0.0
2017-Sep-17 21:00N 35°25' E 139°50'0 0.0
2017-Sep-17 20:30N 35°25' E 139°50'0 0.0
2017-Sep-17 19:59N 35°25' E 139°50'0 0.0
2017-Sep-17 19:30N 35°25' E 139°50'0 0.0
2017-Sep-17 19:00N 35°25' E 139°50'0 0.0
2017-Sep-17 18:30N 35°25' E 139°50'0 0.1
2017-Sep-17 18:00N 35°25' E 139°50'0 0.0
2017-Sep-17 17:29N 35°25' E 139°50'0 0.0
2017-Sep-17 17:00N 35°25' E 139°50'0 0.0
2017-Sep-17 16:26N 35°25' E 139°50'0 0.1
2017-Sep-17 15:47N 35°25' E 139°50'0 0.1
2017-Sep-17 15:29N 35°25' E 139°50'0 0.2
2017-Sep-17 14:59N 35°25' E 139°50'0 0.0
2017-Sep-17 14:30N 35°25' E 139°50'0 0.0
2017-Sep-17 13:59N 35°25' E 139°50'0 0.0
2017-Sep-17 13:30N 35°25' E 139°50'0 0.1
2017-Sep-17 13:00N 35°25' E 139°50'0 0.0
2017-Sep-17 12:30N 35°25' E 139°50'0 0.0
2017-Sep-17 11:50N 35°25' E 139°50'0 0.0
2017-Sep-17 11:23N 35°25' E 139°50'0 0.0
2017-Sep-17 10:56N 35°25' E 139°50'0 0.0
2017-Sep-17 10:29N 35°25' E 139°50'0 0.1
2017-Sep-17 09:56N 35°25' E 139°50'0 0.0
2017-Sep-17 09:29N 35°25' E 139°50'0 0.0
2017-Sep-17 08:59N 35°25' E 139°50'0 0.0
2017-Sep-17 08:29N 35°25' E 139°50'0 0.0
2017-Sep-17 07:59N 35°25' E 139°50'0 0.0
2017-Sep-17 07:29N 35°25' E 139°50'0 0.0
2017-Sep-17 06:59N 35°25' E 139°50'0 0.0
2017-Sep-17 06:29N 35°25' E 139°50'0 0.1
2017-Sep-17 05:59N 35°25' E 139°50'0 0.1
2017-Sep-17 05:29N 35°25' E 139°50'2 4.1
2017-Sep-17 05:00N 35°24' E 139°48'510.5
2017-Sep-17 04:30N 35°20' E 139°44'611.0
2017-Sep-17 04:00N 35°15' E 139°47'611.0
2017-Sep-17 03:30N 35°09' E 139°46'611.3
2017-Sep-17 03:00N 35°04' E 139°45'611.3
2017-Sep-17 02:30N 34°58' E 139°43'5 9.4
2017-Sep-17 01:58N 34°54' E 139°45'  
2017-Sep-10 19:41N 34°01' E 135°02'412.3
2017-Sep-10 19:23N 34°05' E 135°03'512.8
2017-Sep-10 19:00N 34°09' E 135°04'510.7
2017-Sep-10 18:30N 34°14' E 135°07'0 0.7
2017-Sep-10 17:58N 34°15' E 135°07'0 0.0
2017-Sep-10 17:28N 34°15' E 135°07'0 0.0
2017-Sep-10 16:58N 34°15' E 135°07'0 0.0
2017-Sep-10 16:28N 34°15' E 135°07'0 0.0
2017-Sep-10 15:58N 34°15' E 135°07'0 0.0
2017-Sep-10 15:28N 34°15' E 135°07'0 0.0
2017-Sep-10 14:58N 34°15' E 135°07'0 0.0
2017-Sep-10 13:58N 34°15' E 135°07'0 0.0
2017-Sep-10 13:28N 34°15' E 135°07'0 0.0
2017-Sep-10 12:58N 34°15' E 135°07'0 0.0
2017-Sep-10 12:28N 34°15' E 135°07'0 0.0
2017-Sep-10 11:58N 34°15' E 135°07'0 0.0
2017-Sep-10 11:28N 34°15' E 135°07'0 0.0
2017-Sep-10 10:58N 34°15' E 135°07'0 0.0
2017-Sep-10 10:28N 34°15' E 135°07'0 0.0
2017-Sep-10 09:58N 34°15' E 135°07'0 0.0
2017-Sep-10 09:25N 34°15' E 135°07'0 0.0
2017-Sep-10 08:58N 34°15' E 135°07'0 0.0
2017-Sep-10 08:28N 34°15' E 135°07'0 0.0
2017-Sep-10 07:58N 34°15' E 135°07'0 0.0
2017-Sep-10 07:28N 34°15' E 135°07'  
Track history (hours):
 
Tides and Currents Weather Stations Pressure Air Temp Water Temp Dewpoint Dewpoint Depression Visibility Wind Speed Wind Dir Waves Ship Positions

Keiyumaru

Last reported at 2017-Sep-20 07:06 UTC. Time now 2017-Sep-22 00:46 UTC.
Position N 34°53' E 139°48'.

Length 81 m; draft 4.8 m.

Type: Cargo ship. MMSI: 431500561.

Date/timePositionNaut miles runAvg speedWind from/ knotsBaromVisibWave heightAir tempDewpointWater temp
2017-Sep-20 07:06N 34°53' E 139°48'114.2
2017-Sep-20 07:00N 34°54' E 139°46'611.4
2017-Sep-20 06:30N 34°60' E 139°45'510.9
2017-Sep-20 06:00N 35°05' E 139°45'611.6
2017-Sep-20 05:30N 35°11' E 139°46'611.4
2017-Sep-20 05:00N 35°17' E 139°45'611.4
2017-Sep-20 04:31N 35°22' E 139°42'510.9
2017-Sep-20 04:01N 35°26' E 139°46'612.4
2017-Sep-20 03:31N 35°30' E 139°52'612.3
2017-Sep-20 03:01N 35°32' E 139°59'5 1.3
2017-Sep-19 23:08N 35°34' E 140°05'2 8.5
2017-Sep-19 22:54N 35°34' E 140°03'1 0.0
2017-Sep-19 09:03N 35°34' E 140°03'0 0.1
2017-Sep-19 09:00N 35°34' E 140°03'0 0.0
2017-Sep-19 08:00N 35°34' E 140°03'2 3.1
2017-Sep-19 07:30N 35°34' E 140°01'4 8.2
2017-Sep-19 07:00N 35°33' E 139°57'4 7.2
2017-Sep-19 06:30N 35°31' E 139°53'2 4.1
2017-Sep-19 05:58N 35°30' E 139°50'0 0.0
2017-Sep-19 05:28N 35°30' E 139°50'0 0.0
2017-Sep-19 04:58N 35°30' E 139°50'2 3.8
2017-Sep-19 04:30N 35°28' E 139°49'713.2
2017-Sep-19 04:00N 35°22' E 139°52'1 1.5
2017-Sep-19 03:05N 35°21' E 139°54'0 0.0
2017-Sep-19 02:58N 35°21' E 139°54'0 0.0
2017-Sep-19 02:29N 35°21' E 139°54'0 0.0
2017-Sep-19 02:00N 35°21' E 139°54'0 0.0
2017-Sep-19 01:25N 35°21' E 139°54'0 0.0
2017-Sep-18 21:47N 35°21' E 139°54'2 5.5
2017-Sep-18 21:27N 35°22' E 139°52'3 7.0
2017-Sep-18 21:01N 35°25' E 139°50'0 0.1
2017-Sep-18 20:29N 35°25' E 139°50'0 0.0
2017-Sep-18 19:59N 35°25' E 139°50'0 0.0
2017-Sep-18 19:29N 35°25' E 139°50'0 0.0
2017-Sep-18 18:59N 35°25' E 139°50'0 0.0
2017-Sep-18 18:29N 35°25' E 139°50'0 0.0
2017-Sep-18 17:59N 35°25' E 139°50'0 0.1
2017-Sep-18 17:29N 35°25' E 139°50'0 0.0
2017-Sep-18 16:59N 35°25' E 139°50'0 0.0
2017-Sep-18 16:29N 35°25' E 139°50'0 0.0
2017-Sep-18 15:59N 35°25' E 139°50'0 0.0
2017-Sep-18 15:29N 35°25' E 139°50'0 0.0
2017-Sep-18 14:59N 35°25' E 139°50'0 0.0
2017-Sep-18 14:29N 35°25' E 139°50'0 0.0
2017-Sep-18 13:59N 35°25' E 139°50'0 0.0
2017-Sep-18 13:29N 35°25' E 139°50'0 0.0
2017-Sep-18 12:56N 35°25' E 139°50'0 0.0
2017-Sep-18 12:29N 35°25' E 139°50'0 0.0
2017-Sep-18 11:59N 35°25' E 139°50'0 0.0
2017-Sep-18 11:29N 35°25' E 139°50'0 0.0
2017-Sep-18 10:56N 35°25' E 139°50'0 0.0
2017-Sep-18 10:29N 35°25' E 139°50'0 0.1
2017-Sep-18 09:56N 35°25' E 139°50'0 0.1
2017-Sep-18 09:26N 35°25' E 139°50'0 0.1
2017-Sep-18 08:59N 35°25' E 139°50'0 0.1
2017-Sep-18 08:20N 35°25' E 139°50'0 0.1
2017-Sep-18 07:56N 35°25' E 139°50'0 0.1
2017-Sep-18 07:29N 35°25' E 139°50'0 0.1
2017-Sep-18 06:59N 35°25' E 139°50'0 0.0
2017-Sep-18 06:29N 35°25' E 139°50'0 0.0
2017-Sep-18 05:43N 35°25' E 139°50'0 0.0
2017-Sep-18 05:29N 35°25' E 139°50'0 0.0
2017-Sep-18 05:00N 35°25' E 139°50'0 0.0
2017-Sep-18 04:29N 35°25' E 139°50'0 0.0
2017-Sep-18 03:57N 35°25' E 139°50'0 0.0
2017-Sep-18 03:29N 35°25' E 139°50'0 0.0
2017-Sep-18 03:00N 35°25' E 139°50'0 0.0
2017-Sep-18 02:30N 35°25' E 139°50'0 0.0
2017-Sep-18 01:59N 35°25' E 139°50'0 0.0
2017-Sep-18 01:30N 35°25' E 139°50'0 0.0
2017-Sep-18 01:00N 35°25' E 139°50'0 0.0
2017-Sep-18 00:29N 35°25' E 139°50'0 0.0
2017-Sep-18 00:00N 35°25' E 139°50'0 0.0
2017-Sep-17 23:30N 35°25' E 139°50'0 0.0
2017-Sep-17 23:00N 35°25' E 139°50'0 0.0
2017-Sep-17 22:30N 35°25' E 139°50'0 0.0
2017-Sep-17 22:00N 35°25' E 139°50'0 0.0
2017-Sep-17 21:30N 35°25' E 139°50'0 0.0
2017-Sep-17 21:00N 35°25' E 139°50'0 0.0
2017-Sep-17 20:30N 35°25' E 139°50'0 0.0
2017-Sep-17 19:59N 35°25' E 139°50'0 0.0
2017-Sep-17 19:30N 35°25' E 139°50'0 0.0
2017-Sep-17 19:00N 35°25' E 139°50'0 0.0
2017-Sep-17 18:30N 35°25' E 139°50'0 0.1
2017-Sep-17 18:00N 35°25' E 139°50'0 0.0
2017-Sep-17 17:29N 35°25' E 139°50'0 0.0
2017-Sep-17 17:00N 35°25' E 139°50'0 0.0
2017-Sep-17 16:26N 35°25' E 139°50'0 0.1
2017-Sep-17 15:47N 35°25' E 139°50'0 0.1
2017-Sep-17 15:29N 35°25' E 139°50'0 0.2
2017-Sep-17 14:59N 35°25' E 139°50'0 0.0
2017-Sep-17 14:30N 35°25' E 139°50'0 0.0
2017-Sep-17 13:59N 35°25' E 139°50'0 0.0
2017-Sep-17 13:30N 35°25' E 139°50'0 0.1
2017-Sep-17 13:00N 35°25' E 139°50'0 0.0
2017-Sep-17 12:30N 35°25' E 139°50'0 0.0
2017-Sep-17 11:50N 35°25' E 139°50'0 0.0
2017-Sep-17 11:23N 35°25' E 139°50'0 0.0
2017-Sep-17 10:56N 35°25' E 139°50'0 0.0
2017-Sep-17 10:29N 35°25' E 139°50'0 0.1
2017-Sep-17 09:56N 35°25' E 139°50'0 0.0
2017-Sep-17 09:29N 35°25' E 139°50'0 0.0
2017-Sep-17 08:59N 35°25' E 139°50'0 0.0
2017-Sep-17 08:29N 35°25' E 139°50'0 0.0
2017-Sep-17 07:59N 35°25' E 139°50'0 0.0
2017-Sep-17 07:29N 35°25' E 139°50'0 0.0
2017-Sep-17 06:59N 35°25' E 139°50'0 0.0
2017-Sep-17 06:29N 35°25' E 139°50'0 0.1
2017-Sep-17 05:59N 35°25' E 139°50'0 0.1
2017-Sep-17 05:29N 35°25' E 139°50'2 4.1
2017-Sep-17 05:00N 35°24' E 139°48'510.5
2017-Sep-17 04:30N 35°20' E 139°44'611.0
2017-Sep-17 04:00N 35°15' E 139°47'611.0
2017-Sep-17 03:30N 35°09' E 139°46'611.3
2017-Sep-17 03:00N 35°04' E 139°45'611.3
2017-Sep-17 02:30N 34°58' E 139°43'5 9.4
2017-Sep-17 01:58N 34°54' E 139°45'  
2017-Sep-10 19:41N 34°01' E 135°02'412.3
2017-Sep-10 19:23N 34°05' E 135°03'512.8
2017-Sep-10 19:00N 34°09' E 135°04'510.7
2017-Sep-10 18:30N 34°14' E 135°07'0 0.7
2017-Sep-10 17:58N 34°15' E 135°07'0 0.0
2017-Sep-10 17:28N 34°15' E 135°07'0 0.0
2017-Sep-10 16:58N 34°15' E 135°07'0 0.0
2017-Sep-10 16:28N 34°15' E 135°07'0 0.0
2017-Sep-10 15:58N 34°15' E 135°07'0 0.0
2017-Sep-10 15:28N 34°15' E 135°07'0 0.0
2017-Sep-10 14:58N 34°15' E 135°07'0 0.0
2017-Sep-10 13:58N 34°15' E 135°07'0 0.0
2017-Sep-10 13:28N 34°15' E 135°07'0 0.0
2017-Sep-10 12:58N 34°15' E 135°07'0 0.0
2017-Sep-10 12:28N 34°15' E 135°07'0 0.0
2017-Sep-10 11:58N 34°15' E 135°07'0 0.0
2017-Sep-10 11:28N 34°15' E 135°07'0 0.0
2017-Sep-10 10:58N 34°15' E 135°07'0 0.0
2017-Sep-10 10:28N 34°15' E 135°07'0 0.0
2017-Sep-10 09:58N 34°15' E 135°07'0 0.0
2017-Sep-10 09:25N 34°15' E 135°07'0 0.0
2017-Sep-10 08:58N 34°15' E 135°07'0 0.0
2017-Sep-10 08:28N 34°15' E 135°07'0 0.0
2017-Sep-10 07:58N 34°15' E 135°07'0 0.0
2017-Sep-10 07:28N 34°15' E 135°07'  

Dump ship's entire track history